sensor_id;sensor_type;location;lat;lon;timestamp;pressure;altitude;pressure_sealevel;temperature;humidity
64886;BME280;51514;52.206;5.114;2024-02-21T00:01:26;102189.72;;;10.91;90.99
64886;BME280;51514;52.206;5.114;2024-02-21T00:03:51;102189.19;;;10.97;90.56
64886;BME280;51514;52.206;5.114;2024-02-21T00:06:17;102192.00;;;10.95;90.45
64886;BME280;51514;52.206;5.114;2024-02-21T00:08:42;102190.91;;;10.98;90.56
64886;BME280;51514;52.206;5.114;2024-02-21T00:11:08;102193.72;;;10.96;90.84
64886;BME280;51514;52.206;5.114;2024-02-21T00:13:33;102187.22;;;10.99;90.97
64886;BME280;51514;52.206;5.114;2024-02-21T00:16:00;102178.13;;;11.00;90.28
64886;BME280;51514;52.206;5.114;2024-02-21T00:18:26;102175.03;;;11.05;90.72
64886;BME280;51514;52.206;5.114;2024-02-21T00:20:51;102177.59;;;11.06;90.33
64886;BME280;51514;52.206;5.114;2024-02-21T00:23:16;102187.16;;;11.10;90.40
64886;BME280;51514;52.206;5.114;2024-02-21T00:25:42;102178.53;;;11.16;90.17
64886;BME280;51514;52.206;5.114;2024-02-21T00:28:07;102178.28;;;11.19;90.05
64886;BME280;51514;52.206;5.114;2024-02-21T00:30:32;102180.25;;;11.17;89.69
64886;BME280;51514;52.206;5.114;2024-02-21T00:32:58;102194.81;;;11.26;89.43
64886;BME280;51514;52.206;5.114;2024-02-21T00:35:23;102199.34;;;11.25;89.68
64886;BME280;51514;52.206;5.114;2024-02-21T00:37:48;102191.72;;;11.30;89.30
64886;BME280;51514;52.206;5.114;2024-02-21T00:40:14;102186.94;;;11.34;89.32
64886;BME280;51514;52.206;5.114;2024-02-21T00:42:45;102175.72;;;11.39;89.57
64886;BME280;51514;52.206;5.114;2024-02-21T00:45:11;102175.47;;;11.42;89.07
64886;BME280;51514;52.206;5.114;2024-02-21T00:47:36;102176.44;;;11.41;89.06
64886;BME280;51514;52.206;5.114;2024-02-21T00:50:01;102178.63;;;11.47;88.78
64886;BME280;51514;52.206;5.114;2024-02-21T00:52:27;102173.94;;;11.49;88.45
64886;BME280;51514;52.206;5.114;2024-02-21T00:54:52;102181.59;;;11.44;88.86
64886;BME280;51514;52.206;5.114;2024-02-21T00:57:17;102180.63;;;11.45;88.90
64886;BME280;51514;52.206;5.114;2024-02-21T00:59:43;102181.84;;;11.41;88.96
64886;BME280;51514;52.206;5.114;2024-02-21T01:02:08;102180.75;;;11.43;88.86
64886;BME280;51514;52.206;5.114;2024-02-21T01:04:34;102172.50;;;11.45;89.04
64886;BME280;51514;52.206;5.114;2024-02-21T01:06:59;102171.66;;;11.44;89.04
64886;BME280;51514;52.206;5.114;2024-02-21T01:09:25;102170.06;;;11.42;88.96
64886;BME280;51514;52.206;5.114;2024-02-21T01:11:50;102166.63;;;11.40;88.83
64886;BME280;51514;52.206;5.114;2024-02-21T01:14:16;102172.28;;;11.37;89.23
64886;BME280;51514;52.206;5.114;2024-02-21T01:16:41;102169.88;;;11.33;89.32
64886;BME280;51514;52.206;5.114;2024-02-21T01:19:16;102153.63;;;11.24;89.55
64886;BME280;51514;52.206;5.114;2024-02-21T01:21:41;102154.78;;;11.31;89.86
64886;BME280;51514;52.206;5.114;2024-02-21T01:24:07;102144.84;;;11.31;89.43
64886;BME280;51514;52.206;5.114;2024-02-21T01:26:32;102143.38;;;11.27;90.04
64886;BME280;51514;52.206;5.114;2024-02-21T01:28:57;102136.00;;;11.29;89.73
64886;BME280;51514;52.206;5.114;2024-02-21T01:31:23;102136.13;;;11.28;89.94
64886;BME280;51514;52.206;5.114;2024-02-21T01:33:48;102134.44;;;11.27;90.17
64886;BME280;51514;52.206;5.114;2024-02-21T01:36:13;102131.22;;;11.33;89.78
64886;BME280;51514;52.206;5.114;2024-02-21T01:38:39;102129.81;;;11.39;89.54
64886;BME280;51514;52.206;5.114;2024-02-21T01:41:04;102110.47;;;11.33;89.92
64886;BME280;51514;52.206;5.114;2024-02-21T01:43:29;102114.16;;;11.32;89.70
64886;BME280;51514;52.206;5.114;2024-02-21T01:45:55;102103.75;;;11.28;89.38
64886;BME280;51514;52.206;5.114;2024-02-21T01:48:22;102114.41;;;11.29;89.73
64886;BME280;51514;52.206;5.114;2024-02-21T01:50:49;102103.47;;;11.31;90.08
64886;BME280;51514;52.206;5.114;2024-02-21T01:53:27;102105.06;;;11.33;89.88
64886;BME280;51514;52.206;5.114;2024-02-21T01:55:54;102103.94;;;11.36;90.02
64886;BME280;51514;52.206;5.114;2024-02-21T01:58:20;102100.25;;;11.37;89.60
64886;BME280;51514;52.206;5.114;2024-02-21T02:00:47;102098.53;;;11.36;89.76
64886;BME280;51514;52.206;5.114;2024-02-21T02:03:13;102100.91;;;11.29;90.29
64886;BME280;51514;52.206;5.114;2024-02-21T02:05:46;102101.91;;;11.28;89.82
64886;BME280;51514;52.206;5.114;2024-02-21T02:08:14;102095.31;;;11.21;90.34
64886;BME280;51514;52.206;5.114;2024-02-21T02:10:40;102086.31;;;11.32;89.66
64886;BME280;51514;52.206;5.114;2024-02-21T02:13:06;102086.56;;;11.29;90.06
64886;BME280;51514;52.206;5.114;2024-02-21T02:15:45;102087.34;;;11.20;90.11
64886;BME280;51514;52.206;5.114;2024-02-21T02:18:11;102087.66;;;11.26;90.74
64886;BME280;51514;52.206;5.114;2024-02-21T02:20:37;102079.56;;;11.26;90.29
64886;BME280;51514;52.206;5.114;2024-02-21T02:23:09;102082.41;;;11.25;90.30
64886;BME280;51514;52.206;5.114;2024-02-21T02:25:36;102080.03;;;11.31;90.34
64886;BME280;51514;52.206;5.114;2024-02-21T02:28:05;102081.50;;;11.36;90.32
64886;BME280;51514;52.206;5.114;2024-02-21T02:30:35;102073.22;;;11.37;89.73
64886;BME280;51514;52.206;5.114;2024-02-21T02:33:04;102072.38;;;11.37;89.91
64886;BME280;51514;52.206;5.114;2024-02-21T02:35:30;102069.97;;;11.33;90.09
64886;BME280;51514;52.206;5.114;2024-02-21T02:37:55;102068.97;;;11.34;89.91
64886;BME280;51514;52.206;5.114;2024-02-21T02:40:21;102067.56;;;11.40;90.08
64886;BME280;51514;52.206;5.114;2024-02-21T02:42:46;102065.59;;;11.42;89.90
64886;BME280;51514;52.206;5.114;2024-02-21T02:45:14;102059.59;;;11.39;89.77
64886;BME280;51514;52.206;5.114;2024-02-21T02:47:39;102066.00;;;11.38;90.13
64886;BME280;51514;52.206;5.114;2024-02-21T02:50:05;102052.22;;;11.41;89.93
64886;BME280;51514;52.206;5.114;2024-02-21T02:52:31;102048.41;;;11.43;89.69
64886;BME280;51514;52.206;5.114;2024-02-21T02:54:56;102044.44;;;11.47;89.46
64886;BME280;51514;52.206;5.114;2024-02-21T02:57:21;102048.28;;;11.45;89.96
64886;BME280;51514;52.206;5.114;2024-02-21T02:59:51;102050.50;;;11.40;89.58
64886;BME280;51514;52.206;5.114;2024-02-21T03:02:16;102054.38;;;11.47;89.57
64886;BME280;51514;52.206;5.114;2024-02-21T03:04:42;102044.59;;;11.46;89.45
64886;BME280;51514;52.206;5.114;2024-02-21T03:07:07;102037.75;;;11.42;89.72
64886;BME280;51514;52.206;5.114;2024-02-21T03:09:33;102026.53;;;11.46;89.45
64886;BME280;51514;52.206;5.114;2024-02-21T03:11:58;102032.94;;;11.45;89.47
64886;BME280;51514;52.206;5.114;2024-02-21T03:14:28;102028.91;;;11.40;89.82
64886;BME280;51514;52.206;5.114;2024-02-21T03:16:53;102024.97;;;11.44;89.46
64886;BME280;51514;52.206;5.114;2024-02-21T03:19:19;102019.25;;;11.47;89.49
64886;BME280;51514;52.206;5.114;2024-02-21T03:21:44;102006.50;;;11.49;89.23
64886;BME280;51514;52.206;5.114;2024-02-21T03:24:10;102002.06;;;11.48;89.32
64886;BME280;51514;52.206;5.114;2024-02-21T03:26:35;102009.91;;;11.51;89.07
64886;BME280;51514;52.206;5.114;2024-02-21T03:29:00;101994.25;;;11.45;89.09
64886;BME280;51514;52.206;5.114;2024-02-21T03:31:26;101987.16;;;11.44;89.34
64886;BME280;51514;52.206;5.114;2024-02-21T03:33:51;101985.31;;;11.44;89.40
64886;BME280;51514;52.206;5.114;2024-02-21T03:36:16;101976.06;;;11.47;88.85
64886;BME280;51514;52.206;5.114;2024-02-21T03:38:41;101972.09;;;11.51;89.00
64886;BME280;51514;52.206;5.114;2024-02-21T03:41:07;101977.06;;;11.46;89.24
64886;BME280;51514;52.206;5.114;2024-02-21T03:43:32;101982.03;;;11.50;89.12
64886;BME280;51514;52.206;5.114;2024-02-21T03:45:57;101983.44;;;11.35;89.09
64886;BME280;51514;52.206;5.114;2024-02-21T03:48:23;101972.47;;;11.37;89.03
64886;BME280;51514;52.206;5.114;2024-02-21T03:50:48;101980.16;;;11.41;89.18
64886;BME280;51514;52.206;5.114;2024-02-21T03:53:14;101974.59;;;11.33;89.20
64886;BME280;51514;52.206;5.114;2024-02-21T03:55:39;101970.91;;;11.34;89.54
64886;BME280;51514;52.206;5.114;2024-02-21T03:58:04;101972.47;;;11.37;89.29
64886;BME280;51514;52.206;5.114;2024-02-21T04:00:29;101970.50;;;11.39;89.07
64886;BME280;51514;52.206;5.114;2024-02-21T04:02:55;101969.34;;;11.31;89.75
64886;BME280;51514;52.206;5.114;2024-02-21T04:05:21;101969.19;;;11.33;89.30
64886;BME280;51514;52.206;5.114;2024-02-21T04:07:46;101973.03;;;11.30;89.42
64886;BME280;51514;52.206;5.114;2024-02-21T04:10:12;101968.44;;;11.21;89.45
64886;BME280;51514;52.206;5.114;2024-02-21T04:12:37;101958.41;;;11.33;89.25
64886;BME280;51514;52.206;5.114;2024-02-21T04:15:04;101947.88;;;11.30;89.14
64886;BME280;51514;52.206;5.114;2024-02-21T04:17:30;101948.72;;;11.30;89.18
64886;BME280;51514;52.206;5.114;2024-02-21T04:20:04;101953.13;;;11.31;88.87
64886;BME280;51514;52.206;5.114;2024-02-21T04:22:36;101955.28;;;11.38;88.84
64886;BME280;51514;52.206;5.114;2024-02-21T04:25:01;101946.75;;;11.32;89.00
64886;BME280;51514;52.206;5.114;2024-02-21T04:27:26;101939.06;;;11.38;88.85
64886;BME280;51514;52.206;5.114;2024-02-21T04:29:52;101944.78;;;11.34;88.75
64886;BME280;51514;52.206;5.114;2024-02-21T04:32:18;101950.72;;;11.38;88.36
64886;BME280;51514;52.206;5.114;2024-02-21T04:34:43;101946.75;;;11.32;88.77
64886;BME280;51514;52.206;5.114;2024-02-21T04:37:08;101948.72;;;11.30;88.62
64886;BME280;51514;52.206;5.114;2024-02-21T04:39:34;101940.88;;;11.27;88.70
64886;BME280;51514;52.206;5.114;2024-02-21T04:41:59;101938.19;;;11.27;88.87
64886;BME280;51514;52.206;5.114;2024-02-21T04:44:24;101934.50;;;11.28;88.54
64886;BME280;51514;52.206;5.114;2024-02-21T04:46:50;101940.88;;;11.27;88.65
64886;BME280;51514;52.206;5.114;2024-02-21T04:49:15;101931.06;;;11.26;88.58
64886;BME280;51514;52.206;5.114;2024-02-21T04:51:41;101925.69;;;11.26;88.45
64886;BME280;51514;52.206;5.114;2024-02-21T04:54:06;101914.19;;;11.24;88.56
64886;BME280;51514;52.206;5.114;2024-02-21T04:56:31;101920.56;;;11.23;88.31
64886;BME280;51514;52.206;5.114;2024-02-21T04:58:57;101922.94;;;11.17;88.36
64886;BME280;51514;52.206;5.114;2024-02-21T05:01:22;101921.06;;;11.08;88.40
64886;BME280;51514;52.206;5.114;2024-02-21T05:03:48;101916.81;;;11.15;88.39
64886;BME280;51514;52.206;5.114;2024-02-21T05:06:13;101924.22;;;11.13;88.93
64886;BME280;51514;52.206;5.114;2024-02-21T05:08:40;101919.25;;;11.18;88.58
64886;BME280;51514;52.206;5.114;2024-02-21T05:11:05;101912.56;;;11.12;88.60
64886;BME280;51514;52.206;5.114;2024-02-21T05:13:31;101906.44;;;11.10;89.18
64886;BME280;51514;52.206;5.114;2024-02-21T05:15:56;101908.72;;;11.15;88.60
64886;BME280;51514;52.206;5.114;2024-02-21T05:18:21;101910.88;;;11.11;88.61
64886;BME280;51514;52.206;5.114;2024-02-21T05:20:47;101905.34;;;11.13;88.46
64886;BME280;51514;52.206;5.114;2024-02-21T05:23:12;101895.38;;;11.13;88.65
64886;BME280;51514;52.206;5.114;2024-02-21T05:25:37;101891.06;;;11.01;89.11
64886;BME280;51514;52.206;5.114;2024-02-21T05:28:03;101886.66;;;11.00;88.72
64886;BME280;51514;52.206;5.114;2024-02-21T05:30:31;101873.91;;;11.02;88.88
64886;BME280;51514;52.206;5.114;2024-02-21T05:32:56;101877.59;;;11.01;89.33
64886;BME280;51514;52.206;5.114;2024-02-21T05:35:26;101870.34;;;11.02;89.40
64886;BME280;51514;52.206;5.114;2024-02-21T05:37:52;101862.25;;;11.02;89.27
64886;BME280;51514;52.206;5.114;2024-02-21T05:40:18;101851.84;;;10.97;89.22
64886;BME280;51514;52.206;5.114;2024-02-21T05:42:43;101849.72;;;10.91;89.85
64886;BME280;51514;52.206;5.114;2024-02-21T05:45:09;101848.16;;;10.98;89.43
64886;BME280;51514;52.206;5.114;2024-02-21T05:47:34;101842.47;;;10.91;89.77
64886;BME280;51514;52.206;5.114;2024-02-21T05:49:59;101844.75;;;10.96;89.57
64886;BME280;51514;52.206;5.114;2024-02-21T05:52:25;101844.88;;;10.94;89.80
64886;BME280;51514;52.206;5.114;2024-02-21T05:54:50;101836.03;;;10.83;90.05
64886;BME280;51514;52.206;5.114;2024-02-21T05:57:17;101832.34;;;10.84;90.22
64886;BME280;51514;52.206;5.114;2024-02-21T05:59:43;101825.56;;;10.89;90.19
64886;BME280;51514;52.206;5.114;2024-02-21T06:02:09;101832.94;;;10.87;90.55
64886;BME280;51514;52.206;5.114;2024-02-21T06:04:34;101831.81;;;10.90;90.09
64886;BME280;51514;52.206;5.114;2024-02-21T06:07:00;101830.63;;;10.83;90.05
64886;BME280;51514;52.206;5.114;2024-02-21T06:09:26;101830.25;;;10.97;89.88
64886;BME280;51514;52.206;5.114;2024-02-21T06:11:51;101808.69;;;10.97;89.90
64886;BME280;51514;52.206;5.114;2024-02-21T06:14:17;101820.19;;;10.99;89.70
64886;BME280;51514;52.206;5.114;2024-02-21T06:16:44;101820.47;;;10.96;89.94
64886;BME280;51514;52.206;5.114;2024-02-21T06:19:09;101821.56;;;10.93;90.12
64886;BME280;51514;52.206;5.114;2024-02-21T06:21:34;101813.91;;;10.89;90.10
64886;BME280;51514;52.206;5.114;2024-02-21T06:24:00;101825.25;;;10.92;90.21
64886;BME280;51514;52.206;5.114;2024-02-21T06:26:25;101823.41;;;10.93;89.55
64886;BME280;51514;52.206;5.114;2024-02-21T06:28:51;101835.50;;;10.89;90.27
64886;BME280;51514;52.206;5.114;2024-02-21T06:31:16;101839.63;;;10.93;90.05
64886;BME280;51514;52.206;5.114;2024-02-21T06:33:42;101840.47;;;10.93;90.00
64886;BME280;51514;52.206;5.114;2024-02-21T06:36:08;101835.22;;;10.92;90.07
64886;BME280;51514;52.206;5.114;2024-02-21T06:38:33;101826.97;;;10.93;90.09
64886;BME280;51514;52.206;5.114;2024-02-21T06:40:59;101835.72;;;10.76;91.29
64886;BME280;51514;52.206;5.114;2024-02-21T06:43:25;101835.75;;;10.86;90.38
64886;BME280;51514;52.206;5.114;2024-02-21T06:45:51;101833.78;;;10.88;90.30
64886;BME280;51514;52.206;5.114;2024-02-21T06:48:17;101830.63;;;10.83;90.66
64886;BME280;51514;52.206;5.114;2024-02-21T06:50:44;101822.00;;;10.89;90.27
64886;BME280;51514;52.206;5.114;2024-02-21T06:53:09;101812.94;;;10.90;90.22
64886;BME280;51514;52.206;5.114;2024-02-21T06:55:35;101816.63;;;10.89;90.15
64886;BME280;51514;52.206;5.114;2024-02-21T06:58:00;101819.31;;;10.89;90.43
64886;BME280;51514;52.206;5.114;2024-02-21T07:00:26;101809.78;;;10.85;90.08
64886;BME280;51514;52.206;5.114;2024-02-21T07:02:51;101809.88;;;10.74;89.84
64886;BME280;51514;52.206;5.114;2024-02-21T07:05:17;101802.50;;;10.76;90.18
64886;BME280;51514;52.206;5.114;2024-02-21T07:07:42;101804.78;;;10.71;90.74
64886;BME280;51514;52.206;5.114;2024-02-21T07:10:08;101801.63;;;10.66;91.07
64886;BME280;51514;52.206;5.114;2024-02-21T07:12:33;101797.47;;;10.61;90.81
64886;BME280;51514;52.206;5.114;2024-02-21T07:15:00;101793.41;;;10.77;90.25
64886;BME280;51514;52.206;5.114;2024-02-21T07:17:25;101794.66;;;10.73;90.58
64886;BME280;51514;52.206;5.114;2024-02-21T07:19:51;101791.22;;;10.61;90.71
64886;BME280;51514;52.206;5.114;2024-02-21T07:22:16;101785.56;;;10.64;91.07
64886;BME280;51514;52.206;5.114;2024-02-21T07:24:41;101782.56;;;10.57;90.27
64886;BME280;51514;52.206;5.114;2024-02-21T07:27:06;101786.00;;;10.59;90.67
64886;BME280;51514;52.206;5.114;2024-02-21T07:29:32;101782.84;;;10.54;90.86
64886;BME280;51514;52.206;5.114;2024-02-21T07:31:57;101779.56;;;10.60;91.09
64886;BME280;51514;52.206;5.114;2024-02-21T07:34:22;101782.56;;;10.57;91.07
64886;BME280;51514;52.206;5.114;2024-02-21T07:36:48;101758.44;;;10.56;90.75
64886;BME280;51514;52.206;5.114;2024-02-21T07:39:13;101762.41;;;10.61;90.54
64886;BME280;51514;52.206;5.114;2024-02-21T07:41:38;101757.31;;;10.58;90.48
64886;BME280;51514;52.206;5.114;2024-02-21T07:44:05;101747.31;;;10.49;90.77
64886;BME280;51514;52.206;5.114;2024-02-21T07:46:30;101743.66;;;10.60;90.39
64886;BME280;51514;52.206;5.114;2024-02-21T07:48:56;101735.56;;;10.60;90.34
64886;BME280;51514;52.206;5.114;2024-02-21T07:51:21;101735.16;;;10.65;90.90
64886;BME280;51514;52.206;5.114;2024-02-21T07:53:46;101741.41;;;10.65;90.76
64886;BME280;51514;52.206;5.114;2024-02-21T07:56:13;101733.47;;;10.64;91.27
64886;BME280;51514;52.206;5.114;2024-02-21T07:58:39;101735.91;;;10.67;90.49
64886;BME280;51514;52.206;5.114;2024-02-21T08:01:05;101744.41;;;10.72;90.09
64886;BME280;51514;52.206;5.114;2024-02-21T08:03:30;101733.50;;;10.83;89.94
64886;BME280;51514;52.206;5.114;2024-02-21T08:05:56;101733.81;;;10.89;89.52
64886;BME280;51514;52.206;5.114;2024-02-21T08:08:21;101728.56;;;10.97;89.64
64886;BME280;51514;52.206;5.114;2024-02-21T08:10:48;101729.44;;;10.98;89.06
64886;BME280;51514;52.206;5.114;2024-02-21T08:13:14;101721.34;;;10.98;89.53
64886;BME280;51514;52.206;5.114;2024-02-21T08:15:39;101727.44;;;11.00;89.23
64886;BME280;51514;52.206;5.114;2024-02-21T08:18:07;101715.66;;;11.01;89.07
64886;BME280;51514;52.206;5.114;2024-02-21T08:20:32;101721.34;;;11.08;88.60
64886;BME280;51514;52.206;5.114;2024-02-21T08:22:57;101711.97;;;11.12;88.29
64886;BME280;51514;52.206;5.114;2024-02-21T08:25:23;101707.84;;;11.08;88.52
64886;BME280;51514;52.206;5.114;2024-02-21T08:27:48;101700.19;;;11.03;88.51
64886;BME280;51514;52.206;5.114;2024-02-21T08:30:14;101700.88;;;11.05;88.31
64886;BME280;51514;52.206;5.114;2024-02-21T08:32:39;101697.31;;;11.05;88.20
64886;BME280;51514;52.206;5.114;2024-02-21T08:35:05;101694.06;;;11.01;88.29
64886;BME280;51514;52.206;5.114;2024-02-21T08:37:30;101682.72;;;11.07;88.08
64886;BME280;51514;52.206;5.114;2024-02-21T08:39:56;101686.84;;;11.11;87.44
64886;BME280;51514;52.206;5.114;2024-02-21T08:42:21;101675.31;;;11.09;87.51
64886;BME280;51514;52.206;5.114;2024-02-21T08:44:46;101664.13;;;11.14;87.48
64886;BME280;51514;52.206;5.114;2024-02-21T08:47:12;101668.09;;;11.00;87.44
64886;BME280;51514;52.206;5.114;2024-02-21T08:49:37;101665.66;;;11.07;87.81
64886;BME280;51514;52.206;5.114;2024-02-21T08:52:03;101673.34;;;11.11;87.63
64886;BME280;51514;52.206;5.114;2024-02-21T08:54:29;101664.66;;;11.17;87.27
64886;BME280;51514;52.206;5.114;2024-02-21T08:56:55;101650.03;;;11.20;87.15
64886;BME280;51514;52.206;5.114;2024-02-21T08:59:20;101658.13;;;11.10;86.78
64886;BME280;51514;52.206;5.114;2024-02-21T09:01:46;101663.41;;;11.02;87.21
64886;BME280;51514;52.206;5.114;2024-02-21T09:04:12;101659.53;;;11.14;86.99
64886;BME280;51514;52.206;5.114;2024-02-21T09:06:37;101651.75;;;11.21;86.93
64886;BME280;51514;52.206;5.114;2024-02-21T09:09:07;101647.47;;;11.28;86.49
64886;BME280;51514;52.206;5.114;2024-02-21T09:11:33;101646.59;;;11.27;86.49
64886;BME280;51514;52.206;5.114;2024-02-21T09:13:59;101638.81;;;11.34;85.97
64886;BME280;51514;52.206;5.114;2024-02-21T09:16:24;101639.94;;;11.31;86.71
64886;BME280;51514;52.206;5.114;2024-02-21T09:18:50;101631.84;;;11.31;85.99
64886;BME280;51514;52.206;5.114;2024-02-21T09:21:15;101629.13;;;11.31;85.71
64886;BME280;51514;52.206;5.114;2024-02-21T09:23:41;101620.47;;;11.18;85.81
64886;BME280;51514;52.206;5.114;2024-02-21T09:26:06;101615.34;;;11.15;85.64
64886;BME280;51514;52.206;5.114;2024-02-21T09:28:31;101615.91;;;11.28;85.29
64886;BME280;51514;52.206;5.114;2024-02-21T09:30:58;101608.56;;;11.21;85.87
64886;BME280;51514;52.206;5.114;2024-02-21T09:33:23;101603.00;;;11.22;85.30
64886;BME280;51514;52.206;5.114;2024-02-21T09:35:48;101594.06;;;11.22;86.29
64886;BME280;51514;52.206;5.114;2024-02-21T09:38:14;101589.91;;;11.27;85.35
64886;BME280;51514;52.206;5.114;2024-02-21T09:40:40;101584.13;;;11.22;85.47
64886;BME280;51514;52.206;5.114;2024-02-21T09:43:07;101588.63;;;11.31;84.88
64886;BME280;51514;52.206;5.114;2024-02-21T09:45:33;101583.25;;;11.31;85.05
64886;BME280;51514;52.206;5.114;2024-02-21T09:48:40;101561.78;;;11.30;83.82
64886;BME280;51514;52.206;5.114;2024-02-21T09:51:07;101545.16;;;11.34;84.05
64886;BME280;51514;52.206;5.114;2024-02-21T09:53:34;101537.34;;;11.31;84.05
64886;BME280;51514;52.206;5.114;2024-02-21T09:56:03;101534.91;;;11.38;84.11
64886;BME280;51514;52.206;5.114;2024-02-21T09:58:30;101521.00;;;11.33;82.36
64886;BME280;51514;52.206;5.114;2024-02-21T10:00:55;101514.03;;;11.30;83.20
64886;BME280;51514;52.206;5.114;2024-02-21T10:03:22;101508.19;;;11.45;82.67
64886;BME280;51514;52.206;5.114;2024-02-21T10:05:48;101512.88;;;11.43;82.76
64886;BME280;51514;52.206;5.114;2024-02-21T10:08:15;101508.72;;;11.48;82.17
64886;BME280;51514;52.206;5.114;2024-02-21T10:10:45;101498.19;;;11.55;81.44
64886;BME280;51514;52.206;5.114;2024-02-21T10:13:11;101500.75;;;11.47;82.86
64886;BME280;51514;52.206;5.114;2024-02-21T10:15:39;101502.91;;;11.70;81.79
64886;BME280;51514;52.206;5.114;2024-02-21T10:18:05;101491.81;;;11.74;81.20
64886;BME280;51514;52.206;5.114;2024-02-21T10:20:32;101490.09;;;11.82;80.80
64886;BME280;51514;52.206;5.114;2024-02-21T10:23:05;101489.97;;;12.01;80.00
64886;BME280;51514;52.206;5.114;2024-02-21T10:25:36;101482.25;;;12.06;79.70
64886;BME280;51514;52.206;5.114;2024-02-21T10:28:13;101487.47;;;11.90;79.51
64886;BME280;51514;52.206;5.114;2024-02-21T10:30:49;101462.84;;;11.93;79.21
64886;BME280;51514;52.206;5.114;2024-02-21T10:33:15;101463.63;;;12.03;79.29
64886;BME280;51514;52.206;5.114;2024-02-21T10:35:41;101449.53;;;12.10;79.45
64886;BME280;51514;52.206;5.114;2024-02-21T10:38:06;101443.13;;;12.11;79.85
64886;BME280;51514;52.206;5.114;2024-02-21T10:40:31;101429.59;;;12.11;78.75
64886;BME280;51514;52.206;5.114;2024-02-21T10:42:59;101437.72;;;12.11;78.68
64886;BME280;51514;52.206;5.114;2024-02-21T10:45:32;101428.34;;;12.23;77.93
64886;BME280;51514;52.206;5.114;2024-02-21T10:48:13;101412.66;;;12.26;78.60
64886;BME280;51514;52.206;5.114;2024-02-21T10:50:57;101394.59;;;12.27;77.85
64886;BME280;51514;52.206;5.114;2024-02-21T10:53:41;101374.22;;;12.15;77.62
64886;BME280;51514;52.206;5.114;2024-02-21T10:56:21;101371.34;;;12.16;77.89
64886;BME280;51514;52.206;5.114;2024-02-21T10:58:48;101358.03;;;12.23;78.51
64886;BME280;51514;52.206;5.114;2024-02-21T11:01:14;101418.72;;;12.20;78.35
64886;BME280;51514;52.206;5.114;2024-02-21T11:03:42;101424.78;;;12.22;79.11
64886;BME280;51514;52.206;5.114;2024-02-21T11:06:10;101430.19;;;12.04;78.92
64886;BME280;51514;52.206;5.114;2024-02-21T11:08:36;101433.97;;;11.94;79.38
64886;BME280;51514;52.206;5.114;2024-02-21T11:11:02;101421.31;;;11.94;78.68
64886;BME280;51514;52.206;5.114;2024-02-21T11:13:40;101419.06;;;11.90;79.33
64886;BME280;51514;52.206;5.114;2024-02-21T11:16:09;101419.63;;;11.93;79.74
64886;BME280;51514;52.206;5.114;2024-02-21T11:18:36;101420.69;;;11.83;80.45
64886;BME280;51514;52.206;5.114;2024-02-21T11:21:02;101418.84;;;11.83;80.00
64886;BME280;51514;52.206;5.114;2024-02-21T11:23:30;101412.75;;;11.81;80.64
64886;BME280;51514;52.206;5.114;2024-02-21T11:26:18;101396.22;;;11.84;80.11
64886;BME280;51514;52.206;5.114;2024-02-21T11:28:59;101399.09;;;11.55;80.50
64886;BME280;51514;52.206;5.114;2024-02-21T11:31:25;101378.44;;;11.64;79.70
64886;BME280;51514;52.206;5.114;2024-02-21T11:33:53;101370.69;;;11.51;80.91
64886;BME280;51514;52.206;5.114;2024-02-21T11:36:25;101357.88;;;11.36;79.81
64886;BME280;51514;52.206;5.114;2024-02-21T11:38:51;101359.44;;;11.56;80.13
64886;BME280;51514;52.206;5.114;2024-02-21T11:41:17;101345.25;;;11.54;80.21
64886;BME280;51514;52.206;5.114;2024-02-21T11:43:43;101342.06;;;11.58;80.88
64886;BME280;51514;52.206;5.114;2024-02-21T11:46:08;101336.63;;;11.68;80.74
64886;BME280;51514;52.206;5.114;2024-02-21T11:48:34;101299.84;;;11.57;80.08
64886;BME280;51514;52.206;5.114;2024-02-21T11:51:00;101295.84;;;11.79;78.91
64886;BME280;51514;52.206;5.114;2024-02-21T11:53:26;101292.25;;;11.88;78.49
64886;BME280;51514;52.206;5.114;2024-02-21T11:55:55;101272.91;;;12.01;79.40
64886;BME280;51514;52.206;5.114;2024-02-21T11:58:22;101264.88;;;12.09;78.14
64886;BME280;51514;52.206;5.114;2024-02-21T12:00:48;101255.31;;;12.23;78.78
64886;BME280;51514;52.206;5.114;2024-02-21T12:03:14;101244.19;;;12.26;78.01
64886;BME280;51514;52.206;5.114;2024-02-21T12:05:41;101229.66;;;12.27;77.82
64886;BME280;51514;52.206;5.114;2024-02-21T12:08:06;101233.47;;;12.42;76.61
64886;BME280;51514;52.206;5.114;2024-02-21T12:10:33;101226.25;;;12.51;76.52
64886;BME280;51514;52.206;5.114;2024-02-21T12:13:09;101218.84;;;12.61;75.90
64886;BME280;51514;52.206;5.114;2024-02-21T12:15:35;101214.13;;;12.63;76.44
64886;BME280;51514;52.206;5.114;2024-02-21T12:18:00;101224.69;;;12.82;75.07
64886;BME280;51514;52.206;5.114;2024-02-21T12:20:26;101205.19;;;12.78;74.96
64886;BME280;51514;52.206;5.114;2024-02-21T12:22:52;101206.25;;;12.86;75.39
64886;BME280;51514;52.206;5.114;2024-02-21T12:25:20;101196.75;;;12.82;74.99
64886;BME280;51514;52.206;5.114;2024-02-21T12:27:51;101187.88;;;12.55;74.87
64886;BME280;51514;52.206;5.114;2024-02-21T12:30:17;101181.53;;;12.72;75.12
64886;BME280;51514;52.206;5.114;2024-02-21T12:32:42;101178.78;;;12.64;76.01
64886;BME280;51514;52.206;5.114;2024-02-21T12:35:08;101169.69;;;12.73;75.21
64886;BME280;51514;52.206;5.114;2024-02-21T12:37:33;101153.28;;;12.75;75.75
64886;BME280;51514;52.206;5.114;2024-02-21T12:39:59;101153.09;;;12.68;75.92
64886;BME280;51514;52.206;5.114;2024-02-21T12:42:24;101134.63;;;12.56;74.74
64886;BME280;51514;52.206;5.114;2024-02-21T12:44:51;101119.28;;;12.64;75.76
64886;BME280;51514;52.206;5.114;2024-02-21T12:47:18;101114.53;;;12.66;75.33